Time;durP1;ratioP1;P1;durP2;ratioP2;P2;SDS_P1;SDS_P2;PMS_P1;PMS_P2;Temp;Humidity;BMP_temperature;BMP_pressure;BME280_temperature;BME280_humidity;BME280_pressure;Samples;Min_cycle;Max_cycle;Signal;HPM_P1;HPM_P2
2021/12/08 00:00:53;;;;;;;29.73;18.48;;;;;;;;;;5055865;28;20020;-78
2021/12/08 00:03:19;;;;;;;31.65;17.08;;;;;;;;;;5056048;28;20482;-79
2021/12/08 00:05:45;;;;;;;29.48;18.17;;;;;;;;;;5037519;28;20056;-78
2021/12/08 00:08:11;;;;;;;33.70;19.33;;;;;;;;;;5037844;28;20071;-79
2021/12/08 00:13:16;;;;;;;37.25;20.80;;;;;;;;;;5055377;28;20051;-79
2021/12/08 00:15:45;;;;;;;28.27;18.95;;;;;;;;;;5037045;28;20032;-78
2021/12/08 00:18:12;;;;;;;39.38;23.35;;;;;;;;;;5037168;28;20062;-79
2021/12/08 00:20:38;;;;;;;33.38;20.88;;;;;;;;;;5056848;28;20036;-79
2021/12/08 00:23:04;;;;;;;37.20;21.33;;;;;;;;;;5037319;28;20104;-80
2021/12/08 00:25:30;;;;;;;28.58;16.45;;;;;;;;;;5056050;28;20035;-81
2021/12/08 00:27:55;;;;;;;30.52;19.30;;;;;;;;;;5037099;28;20020;-80
2021/12/08 00:30:21;;;;;;;44.80;25.23;;;;;;;;;;5036973;28;20025;-80
2021/12/08 00:32:46;;;;;;;31.00;19.15;;;;;;;;;;5036690;28;20017;-79
2021/12/08 00:35:13;;;;;;;41.33;23.05;;;;;;;;;;5036847;28;20033;-79
2021/12/08 00:37:39;;;;;;;31.70;17.92;;;;;;;;;;5055485;28;20024;-80
2021/12/08 00:40:06;;;;;;;35.35;20.08;;;;;;;;;;5036853;28;20052;-80
2021/12/08 00:42:31;;;;;;;32.70;16.40;;;;;;;;;;5037290;28;20025;-78
2021/12/08 00:44:58;;;;;;;31.25;18.23;;;;;;;;;;5036968;28;20036;-77
2021/12/08 00:47:24;;;;;;;32.05;19.15;;;;;;;;;;5055746;28;20016;-77
2021/12/08 00:49:49;;;;;;;44.70;24.65;;;;;;;;;;5054878;28;20383;-80
2021/12/08 00:52:15;;;;;;;35.17;20.48;;;;;;;;;;5037126;28;20106;-80
2021/12/08 00:54:40;;;;;;;47.17;27.02;;;;;;;;;;5036981;28;20031;-79
2021/12/08 00:57:06;;;;;;;37.70;20.77;;;;;;;;;;5054586;28;20543;-79
2021/12/08 00:59:31;;;;;;;41.58;23.63;;;;;;;;;;5054786;28;20028;-79
2021/12/08 01:02:02;;;;;;;36.90;22.10;;;;;;;;;;5036758;28;20021;-81
2021/12/08 01:04:28;;;;;;;39.10;23.55;;;;;;;;;;5055455;28;20025;-80
2021/12/08 01:06:53;;;;;;;36.03;20.73;;;;;;;;;;5055524;28;20039;-79
2021/12/08 01:09:19;;;;;;;39.78;24.33;;;;;;;;;;5038098;28;20024;-78
2021/12/08 01:11:44;;;;;;;38.97;22.88;;;;;;;;;;5036599;28;20035;-79
2021/12/08 01:14:09;;;;;;;41.20;23.83;;;;;;;;;;5036450;28;20534;-79
2021/12/08 01:16:35;;;;;;;36.80;20.27;;;;;;;;;;5036733;28;20036;-79
2021/12/08 01:19:00;;;;;;;32.42;18.98;;;;;;;;;;5036865;28;20410;-79
2021/12/08 01:21:25;;;;;;;37.35;21.05;;;;;;;;;;5036195;28;20119;-78
2021/12/08 01:23:51;;;;;;;35.97;19.42;;;;;;;;;;5054711;28;20028;-77
2021/12/08 01:26:16;;;;;;;35.90;21.13;;;;;;;;;;5036138;28;20290;-78
2021/12/08 01:28:42;;;;;;;44.85;28.25;;;;;;;;;;5036168;28;20051;-79
2021/12/08 01:31:07;;;;;;;42.13;26.02;;;;;;;;;;5036803;28;20144;-79
2021/12/08 01:33:35;;;;;;;36.80;22.50;;;;;;;;;;5054493;28;20024;-79
2021/12/08 01:36:02;;;;;;;41.38;28.05;;;;;;;;;;5036364;28;20455;-79
2021/12/08 01:38:28;;;;;;;35.10;21.08;;;;;;;;;;5036703;28;20035;-79
2021/12/08 01:40:53;;;;;;;36.38;21.30;;;;;;;;;;5054432;28;20013;-79
2021/12/08 01:43:29;;;;;;;36.85;22.25;;;;;;;;;;5036126;28;20031;-78
2021/12/08 01:46:02;;;;;;;37.70;22.33;;;;;;;;;;5036241;28;20035;-79
2021/12/08 01:48:30;;;;;;;33.97;21.33;;;;;;;;;;5054111;28;20028;-78
2021/12/08 01:50:57;;;;;;;39.63;20.25;;;;;;;;;;5036373;28;20047;-79
2021/12/08 01:53:23;;;;;;;37.30;23.02;;;;;;;;;;5036237;28;20023;-78
2021/12/08 01:55:49;;;;;;;33.05;19.15;;;;;;;;;;5054224;28;20024;-80
2021/12/08 01:58:15;;;;;;;38.67;22.92;;;;;;;;;;5053974;28;20056;-79
2021/12/08 02:00:41;;;;;;;40.13;22.77;;;;;;;;;;5036027;28;20616;-79
2021/12/08 02:03:07;;;;;;;44.85;26.30;;;;;;;;;;5035908;28;20533;-79
2021/12/08 02:05:33;;;;;;;35.42;21.48;;;;;;;;;;5036102;28;20041;-78
2021/12/08 02:07:58;;;;;;;41.80;22.67;;;;;;;;;;5036073;28;20035;-79
2021/12/08 02:10:24;;;;;;;37.70;22.15;;;;;;;;;;5058186;28;20382;-77
2021/12/08 02:12:50;;;;;;;37.28;22.27;;;;;;;;;;5057694;28;20016;-80
2021/12/08 02:15:16;;;;;;;34.55;20.13;;;;;;;;;;5059006;28;20025;-79
2021/12/08 02:17:43;;;;;;;34.95;21.48;;;;;;;;;;5057497;28;20028;-79
2021/12/08 02:20:10;;;;;;;36.15;20.90;;;;;;;;;;5039452;28;20866;-78
2021/12/08 02:22:36;;;;;;;36.22;20.88;;;;;;;;;;5040069;28;20468;-79
2021/12/08 02:25:02;;;;;;;34.55;19.23;;;;;;;;;;5058373;28;20277;-78
2021/12/08 02:27:27;;;;;;;33.78;18.15;;;;;;;;;;5039602;28;20115;-78
2021/12/08 02:30:01;;;;;;;38.47;22.35;;;;;;;;;;5057592;28;20032;-78
2021/12/08 02:46:37;;;;;;;36.00;19.65;;;;;;;;;;5039213;28;20628;-79
2021/12/08 02:48:57;;;;;;;35.08;18.80;;;;;;;;;;5019065;28;20033;-80
2021/12/08 02:51:22;;;;;;;35.45;19.95;;;;;;;;;;5057000;28;20379;-79
2021/12/08 02:53:48;;;;;;;35.92;18.83;;;;;;;;;;5039215;28;20044;-79
2021/12/08 02:56:14;;;;;;;32.58;17.02;;;;;;;;;;5039113;28;20476;-80
2021/12/08 02:58:40;;;;;;;31.88;18.30;;;;;;;;;;5039343;28;20728;-78
2021/12/08 03:01:07;;;;;;;29.17;16.80;;;;;;;;;;5038899;28;20136;-79
2021/12/08 03:03:33;;;;;;;36.67;20.30;;;;;;;;;;5038740;28;20048;-79
2021/12/08 03:05:59;;;;;;;34.10;19.50;;;;;;;;;;5038506;28;20075;-79
2021/12/08 03:08:24;;;;;;;34.72;18.13;;;;;;;;;;5038961;28;20027;-80
2021/12/08 03:10:51;;;;;;;34.70;17.92;;;;;;;;;;5057574;28;20440;-79
2021/12/08 03:13:17;;;;;;;35.47;21.38;;;;;;;;;;5056802;28;20467;-80
2021/12/08 03:15:43;;;;;;;36.28;19.15;;;;;;;;;;5056885;28;20028;-79
2021/12/08 03:18:09;;;;;;;31.80;17.83;;;;;;;;;;5038723;28;20031;-79
2021/12/08 03:20:42;;;;;;;30.85;17.88;;;;;;;;;;5037093;28;20025;-79
2021/12/08 03:23:09;;;;;;;35.30;19.23;;;;;;;;;;5038689;28;20523;-78
2021/12/08 03:25:39;;;;;;;25.88;13.35;;;;;;;;;;5056151;28;20089;-79
2021/12/08 03:28:16;;;;;;;29.10;17.73;;;;;;;;;;5039272;28;20036;-78
2021/12/08 03:30:55;;;;;;;32.35;17.67;;;;;;;;;;5056813;28;20141;-80
2021/12/08 03:33:20;;;;;;;35.93;18.33;;;;;;;;;;5056514;28;20047;-79
2021/12/08 03:35:48;;;;;;;36.67;20.23;;;;;;;;;;5056829;28;20550;-80
2021/12/08 03:38:13;;;;;;;33.50;20.30;;;;;;;;;;5056384;28;20548;-80
2021/12/08 03:40:39;;;;;;;30.40;16.95;;;;;;;;;;5037610;28;20052;-78
2021/12/08 03:43:04;;;;;;;32.50;17.65;;;;;;;;;;5039002;28;20077;-79
2021/12/08 03:45:33;;;;;;;31.35;17.33;;;;;;;;;;5056241;28;20073;-78
2021/12/08 03:48:03;;;;;;;28.60;16.67;;;;;;;;;;5037747;28;20240;-78
2021/12/08 03:50:28;;;;;;;;;;;;;;;;;;5038463;28;20491;-79
2021/12/08 03:52:53;;;;;;;32.43;17.33;;;;;;;;;;5055855;28;19990;-80
2021/12/08 03:55:19;;;;;;;34.17;17.77;;;;;;;;;;5056349;28;20123;-79
2021/12/08 03:57:44;;;;;;;34.70;18.33;;;;;;;;;;5037507;28;20625;-79
2021/12/08 04:00:13;;;;;;;32.67;17.50;;;;;;;;;;5037839;28;20737;-79
2021/12/08 04:02:38;;;;;;;31.33;17.02;;;;;;;;;;5037152;28;20023;-79
2021/12/08 04:05:04;;;;;;;30.90;17.20;;;;;;;;;;5037508;28;20024;-78
2021/12/08 04:07:31;;;;;;;28.42;16.13;;;;;;;;;;5055990;28;20017;-77
2021/12/08 04:09:56;;;;;;;31.05;19.00;;;;;;;;;;5037240;28;20533;-78
2021/12/08 04:12:22;;;;;;;29.70;17.17;;;;;;;;;;5037491;28;20052;-79
2021/12/08 04:14:51;;;;;;;30.02;18.02;;;;;;;;;;5037885;28;21000;-79
2021/12/08 04:17:18;;;;;;;33.97;18.20;;;;;;;;;;5055686;28;20036;-77
2021/12/08 04:19:44;;;;;;;27.40;15.63;;;;;;;;;;5055386;28;20035;-78
2021/12/08 04:22:15;;;;;;;32.30;18.60;;;;;;;;;;5055119;28;20024;-78
2021/12/08 04:24:41;;;;;;;30.88;17.08;;;;;;;;;;5055198;28;20032;-78
2021/12/08 04:27:09;;;;;;;27.27;15.70;;;;;;;;;;5054953;28;20043;-78
2021/12/08 04:29:36;;;;;;;52.92;25.67;;;;;;;;;;5055974;28;20025;-78
2021/12/08 04:32:02;;;;;;;31.88;17.75;;;;;;;;;;5036639;28;20070;-78
2021/12/08 04:34:32;;;;;;;27.35;16.42;;;;;;;;;;5036918;28;20562;-78
2021/12/08 04:37:03;;;;;;;36.90;21.35;;;;;;;;;;5055460;28;20024;-78
2021/12/08 04:40:27;;;;;;;29.38;17.00;;;;;;;;;;5056661;28;20025;-77
2021/12/08 04:43:17;;;;;;;28.02;17.67;;;;;;;;;;5044102;28;20041;-78
2021/12/08 04:45:21;;;;;;;28.38;18.17;;;;;;;;;;5039826;28;20047;-78
2021/12/08 04:48:42;;;;;;;31.00;16.75;;;;;;;;;;5037515;28;20040;-79
2021/12/08 04:53:26;;;;;;;28.83;16.80;;;;;;;;;;5054864;28;20035;-79
2021/12/08 05:06:44;;;;;;;65.97;26.25;;;;;;;;;;5054325;28;20524;-78
2021/12/08 05:09:15;;;;;;;31.60;17.40;;;;;;;;;;5036957;28;20120;-78
2021/12/08 05:11:43;;;;;;;56.53;24.08;;;;;;;;;;5056012;28;20024;-77
2021/12/08 05:14:15;;;;;;;38.17;20.02;;;;;;;;;;5036889;28;20107;-79
2021/12/08 05:16:41;;;;;;;28.83;15.95;;;;;;;;;;5036910;28;20340;-78
2021/12/08 05:19:08;;;;;;;35.10;19.55;;;;;;;;;;5054514;28;20103;-78
2021/12/08 05:21:36;;;;;;;44.88;23.30;;;;;;;;;;5036668;28;20437;-78
2021/12/08 05:24:11;;;;;;;30.63;16.88;;;;;;;;;;5055651;28;20092;-78
2021/12/08 05:26:52;;;;;;;32.95;20.15;;;;;;;;;;5054408;28;20052;-78
2021/12/08 05:29:23;;;;;;;40.90;23.15;;;;;;;;;;5046511;28;20100;-79
2021/12/08 05:31:49;;;;;;;42.58;21.77;;;;;;;;;;5032311;28;20021;-78
2021/12/08 05:34:14;;;;;;;44.63;23.80;;;;;;;;;;5047744;28;20021;-77
2021/12/08 05:36:40;;;;;;;30.15;17.45;;;;;;;;;;5051042;28;21033;-79
2021/12/08 05:39:08;;;;;;;36.13;20.88;;;;;;;;;;5051176;28;20024;-78
2021/12/08 05:41:35;;;;;;;29.75;17.13;;;;;;;;;;5049955;28;20060;-80
2021/12/08 05:44:01;;;;;;;60.20;31.10;;;;;;;;;;5051978;28;20476;-81
2021/12/08 05:46:29;;;;;;;25.52;14.13;;;;;;;;;;5034672;28;20037;-80
2021/12/08 05:48:54;;;;;;;31.42;16.77;;;;;;;;;;5035201;28;20612;-79
2021/12/08 05:51:22;;;;;;;29.30;16.70;;;;;;;;;;5035867;28;20032;-79
2021/12/08 05:53:49;;;;;;;36.70;21.15;;;;;;;;;;5054317;28;20479;-80
2021/12/08 05:56:16;;;;;;;32.55;20.73;;;;;;;;;;5053527;28;20029;-80
2021/12/08 05:58:42;;;;;;;34.50;20.20;;;;;;;;;;5053437;28;20036;-78
2021/12/08 06:01:12;;;;;;;32.50;17.15;;;;;;;;;;5033945;28;20123;-79
2021/12/08 06:03:39;;;;;;;38.97;21.88;;;;;;;;;;5035310;28;20126;-79
2021/12/08 06:06:04;;;;;;;72.57;33.50;;;;;;;;;;5034439;28;20041;-79
2021/12/08 06:08:30;;;;;;;57.85;28.40;;;;;;;;;;5034152;28;20456;-79
2021/12/08 06:10:57;;;;;;;55.03;29.08;;;;;;;;;;5034888;28;20036;-79
2021/12/08 06:13:22;;;;;;;60.10;29.92;;;;;;;;;;5035100;28;20029;-79
2021/12/08 06:15:48;;;;;;;71.15;38.80;;;;;;;;;;5033856;28;20078;-76
2021/12/08 06:18:14;;;;;;;67.07;36.17;;;;;;;;;;5034579;28;20020;-80
2021/12/08 06:20:40;;;;;;;37.05;22.85;;;;;;;;;;5053227;28;20021;-82
2021/12/08 06:23:07;;;;;;;53.40;29.80;;;;;;;;;;5053781;28;20019;-79
2021/12/08 06:25:33;;;;;;;35.33;20.27;;;;;;;;;;5034510;28;20040;-80
2021/12/08 06:27:59;;;;;;;38.78;23.02;;;;;;;;;;5053028;28;20024;-80
2021/12/08 06:30:28;;;;;;;39.30;23.15;;;;;;;;;;5034627;28;20914;-80
2021/12/08 06:32:53;;;;;;;48.20;26.45;;;;;;;;;;5034639;28;20119;-81
2021/12/08 06:35:21;;;;;;;39.45;21.33;;;;;;;;;;5033563;28;20161;-79
2021/12/08 06:37:47;;;;;;;46.70;25.63;;;;;;;;;;5034415;28;20033;-78
2021/12/08 06:40:19;;;;;;;31.17;17.75;;;;;;;;;;5034226;28;20087;-79
2021/12/08 06:42:45;;;;;;;39.92;23.25;;;;;;;;;;5034083;28;20027;-79
2021/12/08 06:45:13;;;;;;;35.78;20.77;;;;;;;;;;5033904;28;20037;-82
2021/12/08 06:47:39;;;;;;;61.70;37.63;;;;;;;;;;5035150;28;20046;-79
2021/12/08 06:50:09;;;;;;;50.10;30.80;;;;;;;;;;5052596;28;20037;-80
2021/12/08 06:52:38;;;;;;;42.10;25.50;;;;;;;;;;5034184;28;20106;-81
2021/12/08 06:55:30;;;;;;;43.00;27.50;;;;;;;;;;5033614;28;20033;-81
2021/12/08 06:58:03;;;;;;;69.97;39.22;;;;;;;;;;5043304;28;20142;-80
2021/12/08 07:00:54;;;;;;;115.97;69.32;;;;;;;;;;5024788;28;20626;-80
2021/12/08 07:08:16;;;;;;;70.38;38.63;;;;;;;;;;5043215;28;20096;-79
2021/12/08 07:10:43;;;;;;;75.13;42.85;;;;;;;;;;5024045;28;20070;-79
2021/12/08 07:13:12;;;;;;;248.35;127.10;;;;;;;;;;5042463;28;20017;-78
2021/12/08 07:15:40;;;;;;;166.38;91.55;;;;;;;;;;5043163;28;20063;-79
2021/12/08 07:18:12;;;;;;;191.90;112.03;;;;;;;;;;5024743;28;20048;-79
2021/12/08 07:20:45;;;;;;;167.50;101.72;;;;;;;;;;5042055;28;20115;-80
2021/12/08 07:23:20;;;;;;;219.25;129.88;;;;;;;;;;5023980;28;20036;-79
2021/12/08 07:25:50;;;;;;;163.70;95.82;;;;;;;;;;5042073;28;20040;-82
2021/12/08 07:28:16;;;;;;;117.13;67.32;;;;;;;;;;5023366;28;20025;-79
2021/12/08 07:30:44;;;;;;;118.07;70.95;;;;;;;;;;5042841;28;20028;-80
2021/12/08 07:33:11;;;;;;;125.82;81.72;;;;;;;;;;5019760;28;20060;-80
2021/12/08 07:35:42;;;;;;;116.85;69.78;;;;;;;;;;5023364;28;20032;-79
2021/12/08 07:38:09;;;;;;;108.95;68.90;;;;;;;;;;5024833;28;20028;-80
2021/12/08 07:40:51;;;;;;;94.57;57.00;;;;;;;;;;5022961;28;20021;-82
2021/12/08 07:43:20;;;;;;;103.70;57.85;;;;;;;;;;5023845;28;20020;-82
2021/12/08 07:45:51;;;;;;;160.40;92.20;;;;;;;;;;5023680;28;20064;-81
2021/12/08 07:48:21;;;;;;;208.35;115.60;;;;;;;;;;5041619;28;20024;-80
2021/12/08 07:50:50;;;;;;;197.57;118.97;;;;;;;;;;5023838;28;20040;-83
2021/12/08 07:53:18;;;;;;;84.60;57.20;;;;;;;;;;5022188;28;20078;-83
2021/12/08 07:55:45;;;;;;;69.30;47.33;;;;;;;;;;5023384;28;20399;-83
2021/12/08 07:58:12;;;;;;;78.65;55.17;;;;;;;;;;5023032;28;20509;-81
2021/12/08 08:00:43;;;;;;;65.93;42.28;;;;;;;;;;5023730;28;20024;-81
2021/12/08 08:03:09;;;;;;;59.38;33.97;;;;;;;;;;5041417;28;20025;-80
2021/12/08 08:05:35;;;;;;;54.85;34.08;;;;;;;;;;5039434;28;20437;-80
2021/12/08 08:08:03;;;;;;;53.58;32.20;;;;;;;;;;5015606;28;20017;-81
2021/12/08 08:10:33;;;;;;;59.47;36.47;;;;;;;;;;5034989;28;20115;-78
2021/12/08 08:13:02;;;;;;;35.67;21.40;;;;;;;;;;5035487;28;20616;-79
2021/12/08 08:15:29;;;;;;;56.40;36.70;;;;;;;;;;5040765;28;20024;-79
2021/12/08 08:17:55;;;;;;;73.15;48.05;;;;;;;;;;5022320;28;20083;-79
2021/12/08 08:20:24;;;;;;;70.85;44.83;;;;;;;;;;5040987;28;20025;-80
2021/12/08 08:22:50;;;;;;;55.78;36.03;;;;;;;;;;5022642;28;20016;-79
2021/12/08 08:25:16;;;;;;;34.83;21.77;;;;;;;;;;5022788;28;20090;-78
2021/12/08 08:27:42;;;;;;;37.35;23.85;;;;;;;;;;5036935;28;20025;-80
2021/12/08 08:30:13;;;;;;;31.45;19.98;;;;;;;;;;5034682;28;20043;-79
2021/12/08 08:32:41;;;;;;;53.50;37.10;;;;;;;;;;5023067;28;20434;-78
2021/12/08 08:35:12;;;;;;;41.70;27.08;;;;;;;;;;5022682;28;20038;-78
2021/12/08 08:37:38;;;;;;;56.15;36.35;;;;;;;;;;5022864;28;20028;-80
2021/12/08 08:40:10;;;;;;;26.35;18.08;;;;;;;;;;5041349;28;20383;-78
2021/12/08 08:42:37;;;;;;;37.83;24.00;;;;;;;;;;5022092;28;20577;-78
2021/12/08 08:45:08;;;;;;;30.55;20.40;;;;;;;;;;5022681;28;20523;-77
2021/12/08 08:47:39;;;;;;;33.72;21.05;;;;;;;;;;5021899;28;20037;-81
2021/12/08 08:50:09;;;;;;;36.08;24.02;;;;;;;;;;5022222;28;20479;-79
2021/12/08 08:52:39;;;;;;;40.00;24.48;;;;;;;;;;5040228;28;20021;-79
2021/12/08 08:55:09;;;;;;;33.35;21.50;;;;;;;;;;5038828;28;20024;-77
2021/12/08 08:57:36;;;;;;;42.40;27.17;;;;;;;;;;5019207;28;20110;-79
2021/12/08 09:00:09;;;;;;;41.95;26.85;;;;;;;;;;5028721;28;20654;-78
2021/12/08 09:02:38;;;;;;;38.17;22.92;;;;;;;;;;5019647;28;20021;-78
2021/12/08 09:05:09;;;;;;;39.38;25.75;;;;;;;;;;5020286;28;20405;-79
2021/12/08 09:07:36;;;;;;;39.33;24.17;;;;;;;;;;5020523;28;20132;-77
2021/12/08 09:10:05;;;;;;;60.75;36.03;;;;;;;;;;5028630;28;20031;-77
2021/12/08 09:12:36;;;;;;;57.70;30.00;;;;;;;;;;5030622;28;20033;-78
2021/12/08 09:15:20;;;;;;;43.40;25.00;;;;;;;;;;5029832;28;20929;-77
2021/12/08 09:17:58;;;;;;;33.45;18.08;;;;;;;;;;5028569;28;20047;-78
2021/12/08 09:20:28;;;;;;;74.85;40.13;;;;;;;;;;5023197;28;20032;-78
2021/12/08 09:22:59;;;;;;;37.88;23.48;;;;;;;;;;5035518;28;20369;-77
2021/12/08 09:25:30;;;;;;;49.65;27.40;;;;;;;;;;5022410;28;20380;-77
2021/12/08 09:27:57;;;;;;;65.38;36.33;;;;;;;;;;5034806;28;20082;-78
2021/12/08 09:30:22;;;;;;;29.50;19.00;;;;;;;;;;5034368;28;20657;-77
2021/12/08 09:32:59;;;;;;;43.15;28.40;;;;;;;;;;5034262;28;20040;-76
2021/12/08 09:35:27;;;;;;;27.40;17.55;;;;;;;;;;5035016;28;20029;-80
2021/12/08 09:37:55;;;;;;;32.20;19.08;;;;;;;;;;5023687;28;20040;-80
2021/12/08 09:40:32;;;;;;;26.20;17.33;;;;;;;;;;5034999;28;20021;-80
2021/12/08 09:43:01;;;;;;;36.75;22.08;;;;;;;;;;5032476;28;20025;-79
2021/12/08 09:45:31;;;;;;;26.48;16.35;;;;;;;;;;5033858;28;20071;-80
2021/12/08 09:47:56;;;;;;;;;;;;;;;;;;5035176;28;20035;-80
2021/12/08 09:50:21;;;;;;;28.60;15.87;;;;;;;;;;5040685;28;19909;-79
2021/12/08 09:52:47;;;;;;;31.15;20.20;;;;;;;;;;5034271;28;20498;-80
2021/12/08 09:55:15;;;;;;;28.95;17.75;;;;;;;;;;5023813;28;20024;-78
2021/12/08 09:57:41;;;;;;;26.42;16.83;;;;;;;;;;5032220;28;20388;-78
2021/12/08 10:00:08;;;;;;;34.03;20.25;;;;;;;;;;5023166;28;20039;-78
2021/12/08 10:02:35;;;;;;;59.55;31.15;;;;;;;;;;5023302;28;20033;-79
2021/12/08 10:05:14;;;;;;;31.45;21.45;;;;;;;;;;5022052;28;20032;-77
2021/12/08 10:07:40;;;;;;;26.58;16.58;;;;;;;;;;5022651;28;20426;-79
2021/12/08 10:10:07;;;;;;;27.48;18.77;;;;;;;;;;5034517;28;20040;-79
2021/12/08 10:12:34;;;;;;;34.00;23.33;;;;;;;;;;5033301;28;20289;-78
2021/12/08 10:15:00;;;;;;;30.25;19.52;;;;;;;;;;5033862;28;20029;-78
2021/12/08 10:17:26;;;;;;;37.50;22.95;;;;;;;;;;5039148;28;20028;-80
2021/12/08 10:20:12;;;;;;;30.13;18.35;;;;;;;;;;5022491;28;20033;-80
2021/12/08 10:22:38;;;;;;;32.22;20.83;;;;;;;;;;5022270;28;20468;-79
2021/12/08 10:25:09;;;;;;;33.65;21.23;;;;;;;;;;5033345;28;20040;-80
2021/12/08 10:27:53;;;;;;;27.67;18.73;;;;;;;;;;5032220;28;20071;-79
2021/12/08 10:30:20;;;;;;;22.80;13.60;;;;;;;;;;5039383;28;20060;-79
2021/12/08 10:32:45;;;;;;;23.02;15.43;;;;;;;;;;5023027;28;20040;-79
2021/12/08 10:35:38;;;;;;;21.70;14.23;;;;;;;;;;5034114;28;20024;-78
2021/12/08 10:38:04;;;;;;;29.02;20.13;;;;;;;;;;5022491;28;20056;-77
2021/12/08 10:40:29;;;;;;;24.15;16.42;;;;;;;;;;5039759;28;20467;-77
2021/12/08 10:42:56;;;;;;;24.23;15.27;;;;;;;;;;5033440;28;20723;-79
2021/12/08 10:45:26;;;;;;;23.95;12.95;;;;;;;;;;5034090;28;20106;-79
2021/12/08 10:47:55;;;;;;;21.15;13.43;;;;;;;;;;5033327;28;20025;-77
2021/12/08 10:55:59;;;;;;;25.00;16.40;;;;;;;;;;5033033;28;20168;-78
2021/12/08 10:58:27;;;;;;;25.70;16.30;;;;;;;;;;5022072;28;20407;-78
2021/12/08 11:00:54;;;;;;;33.13;21.80;;;;;;;;;;5033261;28;20013;-78
2021/12/08 11:03:19;;;;;;;44.38;28.00;;;;;;;;;;5021820;28;20043;-77
2021/12/08 11:05:55;;;;;;;41.08;24.92;;;;;;;;;;5028706;28;20476;-78
2021/12/08 11:08:25;;;;;;;28.27;16.67;;;;;;;;;;5036860;28;20048;-79
2021/12/08 11:10:57;;;;;;;25.05;17.00;;;;;;;;;;5037604;28;20471;-77
2021/12/08 11:13:24;;;;;;;20.35;14.02;;;;;;;;;;5036080;28;20460;-79
2021/12/08 11:15:57;;;;;;;26.00;17.35;;;;;;;;;;5035633;28;20028;-78
2021/12/08 11:18:23;;;;;;;22.73;15.68;;;;;;;;;;5021508;28;20120;-77
2021/12/08 11:20:54;;;;;;;23.63;16.17;;;;;;;;;;5023324;28;20460;-76
2021/12/08 11:23:38;;;;;;;23.42;16.67;;;;;;;;;;5023845;28;20106;-77
2021/12/08 11:26:09;;;;;;;18.73;11.90;;;;;;;;;;5032771;28;20043;-75
2021/12/08 11:28:35;;;;;;;31.63;21.08;;;;;;;;;;5033907;28;20053;-76
2021/12/08 11:31:07;;;;;;;24.00;17.90;;;;;;;;;;5022377;28;20021;-77
2021/12/08 11:33:36;;;;;;;19.75;12.23;;;;;;;;;;5022966;28;20036;-76
2021/12/08 11:36:06;;;;;;;18.17;12.45;;;;;;;;;;5023052;28;20608;-75
2021/12/08 11:38:32;;;;;;;52.63;30.27;;;;;;;;;;5021683;28;20024;-77
2021/12/08 11:40:57;;;;;;;22.65;15.02;;;;;;;;;;5022421;28;20851;-75
2021/12/08 11:43:30;;;;;;;28.30;17.45;;;;;;;;;;5021891;28;20068;-76
2021/12/08 11:46:15;;;;;;;25.58;16.08;;;;;;;;;;5032317;28;20120;-75
2021/12/08 11:48:55;;;;;;;17.95;11.65;;;;;;;;;;5020471;28;20034;-74
2021/12/08 11:51:21;;;;;;;18.90;13.63;;;;;;;;;;5021823;28;20051;-76
2021/12/08 11:53:46;;;;;;;22.73;13.35;;;;;;;;;;5029225;28;20052;-77
2021/12/08 11:56:30;;;;;;;25.65;16.67;;;;;;;;;;5036369;28;20470;-80
2021/12/08 11:58:56;;;;;;;23.73;14.77;;;;;;;;;;5034014;28;20032;-79
2021/12/08 12:01:22;;;;;;;24.58;16.38;;;;;;;;;;5032971;28;20023;-78
2021/12/08 12:03:48;;;;;;;26.52;16.65;;;;;;;;;;5051364;28;20032;-78
2021/12/08 12:06:13;;;;;;;28.70;18.63;;;;;;;;;;5032280;28;20548;-79
2021/12/08 12:08:39;;;;;;;23.40;14.98;;;;;;;;;;5051339;28;20021;-79
2021/12/08 12:11:04;;;;;;;29.98;20.23;;;;;;;;;;5033143;28;20024;-81
2021/12/08 12:13:30;;;;;;;32.80;17.80;;;;;;;;;;5052003;28;20521;-79
2021/12/08 12:15:57;;;;;;;26.92;17.42;;;;;;;;;;5051886;28;20475;-78
2021/12/08 12:18:23;;;;;;;41.58;26.42;;;;;;;;;;5051108;28;20036;-77
2021/12/08 12:20:50;;;;;;;27.83;17.80;;;;;;;;;;5051387;28;20028;-77
2021/12/08 12:23:34;;;;;;;66.50;30.52;;;;;;;;;;5051822;28;20032;-77
2021/12/08 12:26:09;;;;;;;38.30;20.75;;;;;;;;;;5050932;28;20114;-79
2021/12/08 12:28:49;;;;;;;31.77;21.15;;;;;;;;;;5051366;28;20408;-79
2021/12/08 12:31:33;;;;;;;72.70;36.40;;;;;;;;;;5051337;28;20054;-77
2021/12/08 12:33:59;;;;;;;36.42;21.55;;;;;;;;;;5031828;28;20436;-77
2021/12/08 12:36:29;;;;;;;29.25;20.60;;;;;;;;;;5051816;28;20036;-77
2021/12/08 12:39:12;;;;;;;32.78;20.98;;;;;;;;;;5032232;28;20523;-78
2021/12/08 12:41:38;;;;;;;27.45;18.15;;;;;;;;;;5050669;28;20016;-78
2021/12/08 12:44:14;;;;;;;42.17;27.90;;;;;;;;;;5051209;28;20391;-77
2021/12/08 12:46:59;;;;;;;36.85;22.77;;;;;;;;;;5048516;28;20032;-77
2021/12/08 12:49:24;;;;;;;40.83;22.95;;;;;;;;;;5051103;28;20024;-78
2021/12/08 12:52:00;;;;;;;67.55;37.15;;;;;;;;;;5051495;28;20105;-77
2021/12/08 12:54:26;;;;;;;52.83;34.17;;;;;;;;;;5048014;28;20031;-76
2021/12/08 12:56:52;;;;;;;59.03;33.53;;;;;;;;;;5048059;28;20507;-77
2021/12/08 12:59:21;;;;;;;58.60;32.30;;;;;;;;;;5040808;28;20024;-78
2021/12/08 13:02:02;;;;;;;57.78;31.23;;;;;;;;;;5022641;28;20052;-78
2021/12/08 13:04:29;;;;;;;67.00;40.67;;;;;;;;;;5040635;28;20035;-78
2021/12/08 13:06:58;;;;;;;70.57;40.75;;;;;;;;;;5040416;28;20036;-80
2021/12/08 13:09:36;;;;;;;59.72;37.58;;;;;;;;;;5040754;28;20045;-77
2021/12/08 13:12:31;;;;;;;60.92;38.17;;;;;;;;;;5040724;28;20028;-77
2021/12/08 13:15:08;;;;;;;64.38;37.20;;;;;;;;;;5025202;28;20072;-76
2021/12/08 13:17:34;;;;;;;38.08;23.73;;;;;;;;;;5037594;28;20043;-78
2021/12/08 13:20:01;;;;;;;24.73;17.25;;;;;;;;;;5040979;28;20029;-78
2021/12/08 13:22:46;;;;;;;31.65;20.30;;;;;;;;;;5021646;28;20476;-77
2021/12/08 13:28:48;;;;;;;57.10;29.38;;;;;;;;;;5040222;28;20056;-76
2021/12/08 13:31:37;;;;;;;52.30;29.50;;;;;;;;;;5040726;28;20032;-77
2021/12/08 13:34:05;;;;;;;42.22;24.63;;;;;;;;;;5041416;28;20071;-77
2021/12/08 13:36:38;;;;;;;40.92;26.00;;;;;;;;;;5038451;28;20119;-76
2021/12/08 13:39:03;;;;;;;34.75;22.58;;;;;;;;;;5022098;28;20028;-76
2021/12/08 13:41:32;;;;;;;38.33;26.20;;;;;;;;;;5040295;28;20021;-77
2021/12/08 13:43:58;;;;;;;22.15;15.95;;;;;;;;;;5040567;28;20693;-76
2021/12/08 13:46:41;;;;;;;23.77;13.38;;;;;;;;;;5022093;28;20119;-75
2021/12/08 13:49:16;;;;;;;20.20;14.70;;;;;;;;;;5041264;28;20624;-76
2021/12/08 13:51:43;;;;;;;29.48;19.15;;;;;;;;;;5034902;28;20082;-77
2021/12/08 13:54:37;;;;;;;21.27;16.27;;;;;;;;;;5037621;28;20056;-78
2021/12/08 13:57:04;;;;;;;34.17;20.38;;;;;;;;;;5026327;28;20045;-78
2021/12/08 13:59:45;;;;;;;20.45;15.02;;;;;;;;;;5040379;28;20064;-75
2021/12/08 14:02:27;;;;;;;17.58;12.63;;;;;;;;;;5038145;28;20032;-76
2021/12/08 14:05:00;;;;;;;33.83;19.67;;;;;;;;;;5041005;28;20025;-76
2021/12/08 14:07:25;;;;;;;22.40;16.05;;;;;;;;;;5044504;28;20041;-77
2021/12/08 14:09:54;;;;;;;21.75;14.35;;;;;;;;;;5044433;28;20090;-77
2021/12/08 14:12:20;;;;;;;23.02;17.17;;;;;;;;;;5043525;28;20029;-76
2021/12/08 14:14:55;;;;;;;25.92;16.83;;;;;;;;;;5044326;28;20467;-75
2021/12/08 14:17:28;;;;;;;24.20;16.10;;;;;;;;;;5048946;28;20527;-75
2021/12/08 14:19:54;;;;;;;24.20;17.17;;;;;;;;;;5047787;28;20506;-74
2021/12/08 14:22:19;;;;;;;49.58;26.45;;;;;;;;;;5038501;28;20025;-75
2021/12/08 14:24:53;;;;;;;29.83;17.30;;;;;;;;;;5037676;28;20017;-74
2021/12/08 14:27:19;;;;;;;25.90;16.23;;;;;;;;;;5037953;28;20032;-75
2021/12/08 14:29:48;;;;;;;23.98;14.05;;;;;;;;;;5020142;28;20024;-75
2021/12/08 14:32:13;;;;;;;21.85;14.57;;;;;;;;;;5037214;28;20043;-76
2021/12/08 14:34:39;;;;;;;21.30;12.63;;;;;;;;;;5037901;28;20025;-75
2021/12/08 14:37:11;;;;;;;41.03;22.73;;;;;;;;;;5038478;28;20036;-76
2021/12/08 14:39:40;;;;;;;67.57;36.22;;;;;;;;;;5038664;28;20345;-75
2021/12/08 14:42:11;;;;;;;65.53;39.95;;;;;;;;;;5029891;28;20020;-75
2021/12/08 14:44:37;;;;;;;217.60;109.30;;;;;;;;;;5058217;28;20028;-74
2021/12/08 14:47:07;;;;;;;186.18;90.55;;;;;;;;;;5040384;28;20499;-73
2021/12/08 14:49:36;;;;;;;153.65;74.45;;;;;;;;;;5039729;28;20047;-75
2021/12/08 14:52:04;;;;;;;56.70;35.17;;;;;;;;;;5043036;28;20103;-75
2021/12/08 14:54:36;;;;;;;38.78;28.77;;;;;;;;;;5024224;28;20041;-77
2021/12/08 14:57:10;;;;;;;30.90;18.02;;;;;;;;;;5023051;28;20061;-76
2021/12/08 14:59:40;;;;;;;56.00;25.70;;;;;;;;;;5022183;28;20029;-76
2021/12/08 15:02:06;;;;;;;23.80;14.80;;;;;;;;;;5033322;28;20058;-77
2021/12/08 15:04:34;;;;;;;53.92;29.75;;;;;;;;;;5033335;28;20025;-75
2021/12/08 15:07:01;;;;;;;153.35;84.80;;;;;;;;;;5028523;28;20036;-78
2021/12/08 15:09:27;;;;;;;135.23;75.35;;;;;;;;;;5021692;28;20075;-78
2021/12/08 15:11:54;;;;;;;76.45;42.63;;;;;;;;;;5020440;28;20028;-77